createdAt,value
2017-09-18T00:00:35.684Z,100864.73
2017-09-18T00:03:05.226Z,100867.48
2017-09-18T00:05:35.016Z,100877.22
2017-09-18T00:08:04.555Z,100868.86
2017-09-18T00:10:34.178Z,100865.05
2017-09-18T00:13:03.809Z,100870.14
2017-09-18T00:15:33.368Z,100870.35
2017-09-18T00:18:02.925Z,100873.66
2017-09-18T00:20:33.130Z,100872.84
2017-09-18T00:23:02.687Z,100871.73
2017-09-18T00:25:32.226Z,100869.41
2017-09-18T00:28:01.754Z,100874.35
2017-09-18T00:30:31.390Z,100878.31
2017-09-18T00:33:00.929Z,100871.61
2017-09-18T00:35:30.476Z,100868.93
2017-09-18T00:37:59.947Z,100877.51
2017-09-18T00:40:29.491Z,100872.89
2017-09-18T00:42:59.023Z,100864.52
2017-09-18T00:45:28.878Z,100866.02
2017-09-18T00:47:58.474Z,100860.83
2017-09-18T00:50:28.133Z,100868.38
2017-09-18T00:52:58.201Z,100868.79
2017-09-18T00:55:27.839Z,100865.83
2017-09-18T00:57:57.446Z,100861.17
2017-09-18T01:00:27.054Z,100858.55
2017-09-18T01:02:56.618Z,100862.88
2017-09-18T01:05:26.191Z,100864.23
2017-09-18T01:07:55.790Z,100861.80
2017-09-18T01:10:25.390Z,100857.61
2017-09-18T01:12:54.946Z,100853.53
2017-09-18T01:15:24.551Z,100854.57
2017-09-18T01:17:54.055Z,100858.21
2017-09-18T01:20:23.766Z,100860.62
2017-09-18T01:22:53.325Z,100867.30
2017-09-18T01:25:22.894Z,100860.48
2017-09-18T01:27:53.078Z,100856.96
2017-09-18T01:30:22.690Z,100860.28
2017-09-18T01:32:52.172Z,100865.22
2017-09-18T01:35:21.850Z,100869.41
2017-09-18T01:37:51.351Z,100860.56
2017-09-18T01:40:20.999Z,100863.93
2017-09-18T01:42:50.532Z,100858.09
2017-09-18T01:45:20.108Z,100864.20
2017-09-18T01:47:49.682Z,100858.14
2017-09-18T01:50:19.274Z,100860.69
2017-09-18T01:52:48.783Z,100861.03
2017-09-18T01:55:18.424Z,100860.67
2017-09-18T01:57:48.193Z,100858.91
2017-09-18T02:00:18.005Z,100862.67
2017-09-18T02:02:47.623Z,100862.34
2017-09-18T02:05:17.200Z,100850.23
2017-09-18T02:07:46.775Z,100855.88
2017-09-18T02:10:16.399Z,100855.09
2017-09-18T02:12:45.962Z,100853.03
2017-09-18T02:15:15.638Z,100854.70
2017-09-18T02:17:45.142Z,100855.98
2017-09-18T02:20:15.100Z,100852.06
2017-09-18T02:22:44.643Z,100853.76
2017-09-18T02:25:14.247Z,100853.49
2017-09-18T02:27:43.754Z,100855.28
2017-09-18T02:30:13.416Z,100853.61
2017-09-18T02:32:43.095Z,100854.26
2017-09-18T02:35:13.086Z,100855.62
2017-09-18T02:37:42.689Z,100855.92
2017-09-18T02:40:12.451Z,100862.12
2017-09-18T02:42:42.008Z,100854.50
2017-09-18T02:45:11.603Z,100854.65
2017-09-18T02:47:41.095Z,100849.34
2017-09-18T02:50:10.675Z,100856.63
2017-09-18T02:52:40.167Z,100854.75
2017-09-18T02:55:09.794Z,100855.48
2017-09-18T02:57:39.299Z,100851.28
2017-09-18T03:00:08.874Z,100858.03
2017-09-18T03:02:38.372Z,100853.55
2017-09-18T03:05:08.115Z,100847.67
2017-09-18T03:07:37.812Z,100859.73
2017-09-18T03:10:07.415Z,100853.47
2017-09-18T03:12:37.026Z,100857.72
2017-09-18T03:15:06.727Z,100856.66
2017-09-18T03:17:36.227Z,100855.88
2017-09-18T03:20:05.834Z,100859.17
2017-09-18T03:22:35.375Z,100852.77
2017-09-18T03:25:04.948Z,100859.39
2017-09-18T03:27:34.495Z,100861.67
2017-09-18T03:30:04.064Z,100862.12
2017-09-18T03:32:33.622Z,100857.73
2017-09-18T03:35:03.188Z,100856.78
2017-09-18T03:37:32.854Z,100863.77
2017-09-18T03:40:02.374Z,100868.05
2017-09-18T03:42:31.950Z,100871.64
2017-09-18T03:45:01.505Z,100870.28
2017-09-18T03:47:31.059Z,100880.44
2017-09-18T03:50:00.643Z,100874.97
2017-09-18T03:52:30.395Z,100872.09
2017-09-18T03:55:00.047Z,100876.91
2017-09-18T03:57:29.717Z,100876.36
2017-09-18T03:59:59.348Z,100875.71
2017-09-18T04:05:25.430Z,100878.72
2017-09-18T04:07:54.884Z,100875.05
2017-09-18T04:10:24.436Z,100884.09
2017-09-18T04:12:53.951Z,100877.98
2017-09-18T04:15:23.530Z,100872.23
2017-09-18T04:17:56.015Z,100880.99
2017-09-18T04:20:25.698Z,100877.16
2017-09-18T04:22:55.208Z,100884.96
2017-09-18T04:25:24.770Z,100880.17
2017-09-18T04:27:54.301Z,100886.06
2017-09-18T04:30:23.851Z,100884.03
2017-09-18T04:32:53.371Z,100888.73
2017-09-18T04:35:22.955Z,100897.47
2017-09-18T04:37:52.414Z,100902.55
2017-09-18T04:40:21.963Z,100899.13
2017-09-18T04:42:51.542Z,100902.44
2017-09-18T04:45:21.202Z,100906.29
2017-09-18T04:47:50.880Z,100912.45
2017-09-18T04:50:20.381Z,100908.61
2017-09-18T04:52:50.075Z,100913.00
2017-09-18T04:55:19.598Z,100922.31
2017-09-18T04:57:49.286Z,100919.86
2017-09-18T05:00:18.923Z,100915.17
2017-09-18T05:02:48.471Z,100918.31
2017-09-18T05:05:18.135Z,100923.25
2017-09-18T05:07:47.723Z,100920.93
2017-09-18T05:10:17.753Z,100929.69
2017-09-18T05:12:48.384Z,100928.33
2017-09-18T05:15:40.657Z,100921.08
2017-09-18T05:18:12.944Z,100927.77
2017-09-18T05:20:43.976Z,100928.61
2017-09-18T05:23:14.284Z,100934.35
2017-09-18T05:25:43.825Z,100936.37
2017-09-18T05:28:13.383Z,100936.92
2017-09-18T05:30:42.957Z,100937.88
2017-09-18T05:33:12.616Z,100931.57
2017-09-18T05:35:42.239Z,100942.77
2017-09-18T05:38:11.782Z,100936.63
2017-09-18T05:40:41.487Z,100938.39
2017-09-18T05:43:11.018Z,100944.14
2017-09-18T05:45:40.610Z,100947.79
2017-09-18T05:48:10.210Z,100942.98
2017-09-18T05:50:39.754Z,100949.26
2017-09-18T05:53:09.368Z,100944.58
2017-09-18T05:55:39.523Z,100948.77
2017-09-18T05:58:10.970Z,100943.95
2017-09-18T06:00:41.251Z,100947.10
2017-09-18T06:03:10.702Z,100952.80
2017-09-18T06:05:40.927Z,100951.40
2017-09-18T06:08:10.532Z,100955.14
2017-09-18T06:10:40.052Z,100952.64
2017-09-18T06:13:09.849Z,100957.36
2017-09-18T06:15:39.369Z,100958.25
2017-09-18T06:18:08.882Z,100956.55
2017-09-18T06:20:38.392Z,100956.84
2017-09-18T06:23:07.961Z,100956.69
2017-09-18T06:25:39.732Z,100957.30
2017-09-18T06:28:09.550Z,100960.38
2017-09-18T06:30:41.330Z,100955.41
2017-09-18T06:33:10.843Z,100950.58
2017-09-18T06:35:40.330Z,100958.96
2017-09-18T06:38:09.858Z,100962.35
2017-09-18T06:40:39.347Z,100966.65
2017-09-18T06:43:08.829Z,100962.98
2017-09-18T06:45:38.399Z,100967.34
2017-09-18T06:48:11.251Z,100964.69
2017-09-18T06:53:21.667Z,100969.69
2017-09-18T06:55:51.273Z,100969.70
2017-09-18T06:58:20.882Z,100962.95
2017-09-18T07:00:50.822Z,100973.67
2017-09-18T07:03:20.677Z,100967.69
2017-09-18T07:05:50.255Z,100970.00
2017-09-18T07:08:19.867Z,100964.83
2017-09-18T07:10:49.444Z,100971.44
2017-09-18T07:13:19.684Z,100971.02
2017-09-18T07:15:49.287Z,100977.35
2017-09-18T07:18:18.787Z,100981.56
2017-09-18T07:20:48.398Z,100981.45
2017-09-18T07:23:17.976Z,100993.63
2017-09-18T07:25:47.522Z,100999.59
2017-09-18T07:28:17.021Z,100999.01
2017-09-18T07:30:46.585Z,101005.37
2017-09-18T07:33:16.227Z,101008.23
2017-09-18T07:35:46.429Z,101002.35
2017-09-18T07:38:16.064Z,100999.55
2017-09-18T07:40:45.604Z,101008.42
2017-09-18T07:43:15.179Z,101012.11
2017-09-18T07:45:44.731Z,101015.80
2017-09-18T07:48:14.297Z,101008.66
2017-09-18T07:50:43.860Z,101019.78
2017-09-18T07:53:13.904Z,101014.87
2017-09-18T07:55:43.758Z,101020.95
2017-09-18T07:58:13.216Z,101025.91
2017-09-18T08:00:43.007Z,101024.41
2017-09-18T08:03:12.620Z,101023.41
2017-09-18T08:05:42.300Z,101022.09
2017-09-18T08:08:11.851Z,101026.27
2017-09-18T08:10:42.531Z,101028.77
2017-09-18T08:13:12.311Z,101029.34
2017-09-18T08:15:41.832Z,101022.81
2017-09-18T08:18:11.596Z,101026.84
2017-09-18T08:20:41.541Z,101023.77
2017-09-18T08:23:11.352Z,101024.03
2017-09-18T08:25:40.836Z,101020.75
2017-09-18T08:28:10.408Z,101019.89
2017-09-18T08:30:39.934Z,101024.55
2017-09-18T08:33:09.623Z,101017.73
2017-09-18T08:35:39.510Z,101019.44
2017-09-18T08:38:09.222Z,101021.72
2017-09-18T08:40:39.146Z,101023.42
2017-09-18T08:43:08.915Z,101023.35
2017-09-18T08:45:38.583Z,101018.99
2017-09-18T08:48:08.741Z,101021.47
2017-09-18T08:50:38.418Z,101014.01
2017-09-18T08:53:08.324Z,101016.64
2017-09-18T08:55:38.103Z,101014.08
2017-09-18T08:58:07.768Z,101016.69
2017-09-18T09:00:37.654Z,101011.38
2017-09-18T09:03:07.115Z,101017.15
2017-09-18T09:05:36.663Z,101020.05
2017-09-18T09:08:06.258Z,101020.61
2017-09-18T09:10:35.827Z,101027.20
2017-09-18T09:13:05.287Z,101025.70
2017-09-18T09:15:34.796Z,101026.55
2017-09-18T09:18:04.234Z,101026.73
2017-09-18T09:20:33.723Z,101030.61
2017-09-18T09:23:03.600Z,101031.52
2017-09-18T09:25:33.615Z,101031.52
2017-09-18T09:28:03.279Z,101040.41
2017-09-18T09:30:33.034Z,101033.99
2017-09-18T09:33:03.187Z,101025.50
2017-09-18T09:35:43.998Z,101028.32
2017-09-18T09:38:13.604Z,101027.91
2017-09-18T09:40:43.294Z,101028.47
2017-09-18T09:43:12.796Z,101019.17
2017-09-18T09:45:44.135Z,101025.33
2017-09-18T09:48:14.144Z,101027.17
2017-09-18T09:50:44.077Z,101029.62
2017-09-18T09:53:16.160Z,101028.73
2017-09-18T09:55:46.947Z,101032.61
2017-09-18T09:58:20.734Z,101033.80
2017-09-18T10:00:51.495Z,101031.05
2017-09-18T10:03:21.097Z,101041.83
2017-09-18T10:05:50.752Z,101036.75
2017-09-18T10:08:20.239Z,101034.18
2017-09-18T10:10:50.788Z,101035.86
2017-09-18T10:13:20.767Z,101032.47
2017-09-18T10:15:50.267Z,101031.31
2017-09-18T10:18:19.807Z,101030.19
2017-09-18T10:20:49.350Z,101029.78
2017-09-18T10:23:20.458Z,101031.46
2017-09-18T10:25:50.258Z,101028.23
2017-09-18T10:28:19.898Z,101030.48
2017-09-18T10:30:49.632Z,101029.02
2017-09-18T10:33:20.047Z,101030.21
2017-09-18T10:35:50.417Z,101037.34
2017-09-18T10:38:19.990Z,101037.02
2017-09-18T10:40:49.920Z,101041.61
2017-09-18T10:43:20.194Z,101040.27
2017-09-18T10:45:49.748Z,101044.75
2017-09-18T10:48:19.384Z,101038.42
2017-09-18T10:50:49.132Z,101042.76
2017-09-18T10:53:18.835Z,101041.36
2017-09-18T10:55:48.831Z,101042.52
2017-09-18T10:58:18.444Z,101036.80
2017-09-18T11:00:48.764Z,101045.65
2017-09-18T11:03:18.888Z,101040.77
2017-09-18T11:05:48.898Z,101045.48
2017-09-18T11:08:18.499Z,101037.73
2017-09-18T11:10:48.257Z,101045.97
2017-09-18T11:13:18.028Z,101041.09
2017-09-18T11:15:47.699Z,101044.03
2017-09-18T11:18:18.400Z,101047.01
2017-09-18T11:20:48.096Z,101045.55
2017-09-18T11:23:17.687Z,101042.05
2017-09-18T11:25:47.739Z,101045.62
2017-09-18T11:28:17.414Z,101043.41
2017-09-18T11:30:47.142Z,101043.79
2017-09-18T11:33:16.830Z,101036.05
2017-09-18T11:35:46.565Z,101041.52
2017-09-18T11:38:17.111Z,101035.56
2017-09-18T11:40:47.852Z,101034.23
2017-09-18T11:43:18.351Z,101036.91
2017-09-18T11:45:47.865Z,101032.52
2017-09-18T11:48:20.205Z,101038.97
2017-09-18T11:50:51.001Z,101022.74
2017-09-18T11:53:20.498Z,101026.48
2017-09-18T11:55:50.052Z,101037.14
2017-09-18T11:58:19.567Z,101031.88
2017-09-18T12:00:49.048Z,101038.12
2017-09-18T12:03:18.575Z,101033.74
2017-09-18T12:05:48.163Z,101032.42
2017-09-18T12:08:18.340Z,101041.54
2017-09-18T12:10:47.879Z,101040.84
2017-09-18T12:13:17.415Z,101040.19
2017-09-18T12:15:46.919Z,101038.09
2017-09-18T12:18:16.735Z,101043.06
2017-09-18T12:20:46.252Z,101041.48
2017-09-18T12:23:16.016Z,101040.97
2017-09-18T12:25:46.217Z,101030.41
2017-09-18T12:28:15.841Z,101032.17
2017-09-18T12:30:45.612Z,101038.71
2017-09-18T12:33:15.248Z,101034.68
2017-09-18T12:35:45.042Z,101039.09
2017-09-18T12:38:14.615Z,101034.73
2017-09-18T12:40:44.357Z,101033.69
2017-09-18T12:43:14.418Z,101034.98
2017-09-18T12:45:43.979Z,101034.00
2017-09-18T12:48:14.215Z,101032.94
2017-09-18T12:50:44.203Z,101031.80
2017-09-18T12:53:14.227Z,101031.64
2017-09-18T12:55:43.754Z,101027.81
2017-09-18T12:58:13.293Z,101036.52
2017-09-18T13:00:43.494Z,101030.52
2017-09-18T13:03:13.060Z,101034.00
2017-09-18T13:05:42.890Z,101032.52
2017-09-18T13:08:12.384Z,101036.83
2017-09-18T13:10:42.020Z,101031.45
2017-09-18T13:13:11.847Z,101034.05
2017-09-18T13:15:41.854Z,101033.80
2017-09-18T13:18:12.296Z,101031.86
2017-09-18T13:20:42.059Z,101029.03
2017-09-18T13:23:11.727Z,101026.70
2017-09-18T13:25:41.347Z,101030.36
2017-09-18T13:28:10.862Z,101027.11
2017-09-18T13:30:40.488Z,101028.52
2017-09-18T13:33:10.161Z,101022.95
2017-09-18T13:35:39.676Z,101029.53
2017-09-18T13:38:09.124Z,101036.70
2017-09-18T13:40:38.985Z,101041.99
2017-09-18T13:43:08.616Z,101039.69
2017-09-18T13:45:38.362Z,101036.52
2017-09-18T13:48:08.246Z,101034.98
2017-09-18T13:50:38.164Z,101036.11
2017-09-18T13:53:07.893Z,101031.23
2017-09-18T13:55:37.803Z,101039.54
2017-09-18T13:58:07.814Z,101035.58
2017-09-18T14:00:38.260Z,101036.64
2017-09-18T14:03:07.937Z,101036.64
2017-09-18T14:05:37.783Z,101037.88
2017-09-18T14:08:07.255Z,101030.35
2017-09-18T14:10:36.767Z,101036.89
2017-09-18T14:13:06.864Z,101039.38
2017-09-18T14:15:36.575Z,101027.39
2017-09-18T14:18:06.423Z,101030.47
2017-09-18T14:20:36.023Z,101033.58
2017-09-18T14:23:05.640Z,101026.95
2017-09-18T14:25:38.283Z,101021.92
2017-09-18T14:28:07.919Z,101030.63
2017-09-18T14:30:38.103Z,101032.99
2017-09-18T14:33:07.596Z,101028.12
2017-09-18T14:35:37.140Z,101030.95
2017-09-18T14:38:06.702Z,101035.62
2017-09-18T14:40:36.915Z,101032.86
2017-09-18T14:43:06.711Z,101037.16
2017-09-18T14:45:36.452Z,101038.95
2017-09-18T14:48:11.755Z,101037.73
2017-09-18T14:50:42.637Z,101038.30
2017-09-18T14:53:12.136Z,101031.78
2017-09-18T14:55:41.678Z,101033.58
2017-09-18T14:58:11.218Z,101031.51
2017-09-18T15:00:40.750Z,101034.75
2017-09-18T15:03:10.194Z,101034.24
2017-09-18T15:05:40.137Z,101033.16
2017-09-18T15:08:09.566Z,101030.14
2017-09-18T15:10:39.132Z,101022.33
2017-09-18T15:13:08.603Z,101023.06
2017-09-18T15:15:38.157Z,101024.29
2017-09-18T15:18:07.702Z,101020.86
2017-09-18T15:20:37.450Z,101022.10
2017-09-18T15:23:07.317Z,101026.66
2017-09-18T15:25:37.599Z,101019.73
2017-09-18T15:28:07.055Z,101027.05
2017-09-18T15:30:36.562Z,101018.84
2017-09-18T15:33:06.169Z,101020.77
2017-09-18T15:35:35.937Z,101026.95
2017-09-18T15:38:05.475Z,101026.70
2017-09-18T15:40:35.131Z,101025.38
2017-09-18T15:43:04.686Z,101023.91
2017-09-18T15:45:34.238Z,101021.95
2017-09-18T15:48:03.748Z,101018.12
2017-09-18T15:50:33.310Z,101019.00
2017-09-18T15:53:02.833Z,101020.32
2017-09-18T15:55:32.322Z,101016.80
2017-09-18T15:58:01.803Z,101013.36
2017-09-18T16:00:31.595Z,101017.05
2017-09-18T16:03:07.754Z,101020.13
2017-09-18T16:05:38.413Z,101027.75
2017-09-18T16:08:07.988Z,101026.12
2017-09-18T16:10:37.639Z,101019.30
2017-09-18T16:13:07.238Z,101020.42
2017-09-18T16:15:37.444Z,101030.50
2017-09-18T16:18:06.976Z,101028.36
2017-09-18T16:20:36.579Z,101025.44
2017-09-18T16:23:06.647Z,101010.83
2017-09-18T16:25:36.444Z,101032.08
2017-09-18T16:28:06.269Z,101024.95
2017-09-18T16:30:35.929Z,101030.78
2017-09-18T16:33:05.434Z,101024.51
2017-09-18T16:35:35.079Z,101030.61
2017-09-18T16:38:04.842Z,101031.98
2017-09-18T16:40:34.735Z,101036.56
2017-09-18T16:43:04.578Z,101034.43
2017-09-18T16:45:34.578Z,101034.21
2017-09-18T16:48:05.236Z,101031.58
2017-09-18T16:50:35.579Z,101035.42
2017-09-18T16:53:05.407Z,101039.97
2017-09-18T16:55:35.084Z,101044.63
2017-09-18T16:58:04.788Z,101038.33
2017-09-18T17:00:35.479Z,101047.45
2017-09-18T17:03:05.333Z,101049.19
2017-09-18T17:05:36.373Z,101044.02
2017-09-18T17:08:06.123Z,101051.08
2017-09-18T17:10:36.324Z,101048.44
2017-09-18T17:13:07.109Z,101054.44
2017-09-18T17:15:36.897Z,101053.32
2017-09-18T17:18:07.377Z,101063.77
2017-09-18T17:20:37.247Z,101065.71
2017-09-18T17:23:07.911Z,101068.09
2017-09-18T17:25:37.708Z,101063.84
2017-09-18T17:28:07.627Z,101067.55
2017-09-18T17:30:37.704Z,101072.39
2017-09-18T17:33:07.586Z,101073.05
2017-09-18T17:35:37.600Z,101080.04
2017-09-18T17:38:07.391Z,101084.02
2017-09-18T17:40:37.347Z,101084.95
2017-09-18T17:43:07.019Z,101091.05
2017-09-18T17:45:36.781Z,101090.27
2017-09-18T17:48:06.887Z,101100.44
2017-09-18T17:50:38.462Z,101100.09
2017-09-18T17:53:10.282Z,101100.95
2017-09-18T17:55:41.357Z,101105.08
2017-09-18T17:58:12.073Z,101111.08
2017-09-18T18:00:42.692Z,101108.56
2017-09-18T18:03:12.174Z,101109.20
2017-09-18T18:05:41.887Z,101116.14
2017-09-18T18:08:11.791Z,101119.59
2017-09-18T18:10:43.317Z,101120.20
2017-09-18T18:13:13.339Z,101122.72
2017-09-18T18:15:43.550Z,101114.67
2017-09-18T18:18:16.869Z,101123.31
2017-09-18T18:20:46.896Z,101120.33
2017-09-18T18:23:17.866Z,101122.67
2017-09-18T18:25:53.013Z,101113.62
2017-09-18T18:28:24.665Z,101117.45
2017-09-18T18:30:56.451Z,101115.48
2017-09-18T18:33:27.671Z,101119.53
2017-09-18T18:36:00.832Z,101120.42
2017-09-18T18:38:33.651Z,101119.91
2017-09-18T18:41:03.667Z,101123.14
2017-09-18T18:43:35.152Z,101126.91
2017-09-18T18:46:06.627Z,101127.60
2017-09-18T18:48:36.508Z,101128.20
2017-09-18T18:51:07.956Z,101132.08
2017-09-18T18:53:40.887Z,101135.43
2017-09-18T18:56:10.933Z,101133.30
2017-09-18T18:58:45.359Z,101138.16
2017-09-18T19:01:18.584Z,101139.61
2017-09-18T19:03:50.910Z,101136.38
2017-09-18T19:06:22.534Z,101143.16
2017-09-18T19:08:53.075Z,101143.09
2017-09-18T19:11:25.217Z,101154.33
2017-09-18T19:13:56.111Z,101152.79
2017-09-18T19:16:27.948Z,101160.96
2017-09-18T19:18:58.447Z,101157.20
2017-09-18T19:21:29.803Z,101160.00
2017-09-18T19:23:59.572Z,101157.27
2017-09-18T19:26:30.267Z,101157.12
2017-09-18T19:29:00.697Z,101153.83
2017-09-18T19:31:30.819Z,101156.16
2017-09-18T19:34:00.627Z,101158.50
2017-09-18T19:36:30.400Z,101156.94
2017-09-18T19:39:00.078Z,101153.28
2017-09-18T19:41:30.009Z,101151.55
2017-09-18T19:43:59.944Z,101152.78
2017-09-18T19:46:29.739Z,101155.80
2017-09-18T19:49:01.064Z,101152.23
2017-09-18T19:51:30.975Z,101147.05
2017-09-18T19:54:01.074Z,101153.79
2017-09-18T19:56:31.010Z,101151.08
2017-09-18T19:59:00.895Z,101155.38
2017-09-18T20:01:31.065Z,101158.85
2017-09-18T20:04:01.122Z,101152.40
2017-09-18T20:06:31.034Z,101152.41
2017-09-18T20:09:01.328Z,101154.77
2017-09-18T20:11:30.883Z,101159.89
2017-09-18T20:14:00.487Z,101158.56
2017-09-18T20:16:30.003Z,101160.80
2017-09-18T20:18:59.776Z,101159.97
2017-09-18T20:21:30.081Z,101164.81
2017-09-18T20:24:00.176Z,101159.91
2017-09-18T20:26:42.260Z,101156.20
2017-09-18T20:29:12.981Z,101165.84
2017-09-18T20:31:47.883Z,101157.63
2017-09-18T20:34:17.629Z,101161.61
2017-09-18T20:36:47.441Z,101161.50
2017-09-18T20:39:17.214Z,101162.19
2017-09-18T20:41:48.683Z,101156.59
2017-09-18T20:44:20.653Z,101168.39
2017-09-18T20:46:50.843Z,101170.09
2017-09-18T20:49:20.483Z,101168.59
2017-09-18T20:51:50.423Z,101170.53
2017-09-18T20:54:20.527Z,101170.53
2017-09-18T20:56:51.619Z,101167.52
2017-09-18T20:59:22.095Z,101172.89
2017-09-18T21:01:51.659Z,101171.78
2017-09-18T21:04:22.589Z,101172.53
2017-09-18T21:06:52.495Z,101174.55
2017-09-18T21:09:22.259Z,101170.58
2017-09-18T21:11:52.107Z,101171.02
2017-09-18T21:14:21.879Z,101167.48
2017-09-18T21:16:51.572Z,101168.29
2017-09-18T21:19:21.570Z,101172.29
2017-09-18T21:21:51.342Z,101179.02
2017-09-18T21:24:21.014Z,101172.31
2017-09-18T21:26:50.843Z,101176.44
2017-09-18T21:29:20.640Z,101166.84
2017-09-18T21:31:51.451Z,101171.63
2017-09-18T21:34:21.575Z,101174.77
2017-09-18T21:36:52.842Z,101176.85
2017-09-18T21:39:22.346Z,101175.09
2017-09-18T21:41:52.163Z,101186.88
2017-09-18T21:44:21.795Z,101180.44
2017-09-18T21:46:51.323Z,101173.98
2017-09-18T21:49:21.211Z,101180.59
2017-09-18T21:51:50.925Z,101181.69
2017-09-18T21:54:20.600Z,101176.05
2017-09-18T21:56:50.138Z,101174.30
2017-09-18T21:59:20.135Z,101182.09
2017-09-18T22:01:49.974Z,101181.15
2017-09-18T22:04:20.570Z,101182.36
2017-09-18T22:06:50.461Z,101173.91
2017-09-18T22:09:20.122Z,101177.58
2017-09-18T22:11:50.224Z,101178.95
2017-09-18T22:14:20.132Z,101178.16
2017-09-18T22:16:49.904Z,101180.06
2017-09-18T22:19:19.616Z,101176.66
2017-09-18T22:21:49.513Z,101180.60
2017-09-18T22:24:19.268Z,101172.27
2017-09-18T22:26:49.146Z,101175.00
2017-09-18T22:29:19.696Z,101178.16
2017-09-18T22:31:49.540Z,101169.95
2017-09-18T22:34:19.554Z,101163.52
2017-09-18T22:36:50.080Z,101160.77
2017-09-18T22:39:19.938Z,101158.45
2017-09-18T22:41:49.657Z,101161.59
2017-09-18T22:44:19.551Z,101164.33
2017-09-18T22:46:49.144Z,101166.66
2017-09-18T22:49:18.739Z,101160.94
2017-09-18T22:51:48.984Z,101156.00
2017-09-18T22:54:18.479Z,101159.98
2017-09-18T22:56:47.969Z,101156.25
2017-09-18T22:59:17.451Z,101157.48
2017-09-18T23:01:47.779Z,101156.95
2017-09-18T23:04:17.963Z,101160.10
2017-09-18T23:06:47.535Z,101161.19
2017-09-18T23:09:17.032Z,101164.34
2017-09-18T23:11:46.654Z,101161.08
2017-09-18T23:14:16.122Z,101162.56
2017-09-18T23:16:45.670Z,101163.64
2017-09-18T23:19:15.211Z,101164.88
2017-09-18T23:21:44.812Z,101161.19
2017-09-18T23:24:14.518Z,101167.77
2017-09-18T23:26:44.031Z,101167.74
2017-09-18T23:29:13.772Z,101164.18
2017-09-18T23:31:43.261Z,101173.64
2017-09-18T23:34:12.773Z,101167.45
2017-09-18T23:36:42.791Z,101161.72
2017-09-18T23:39:12.619Z,101156.92
2017-09-18T23:41:42.467Z,101156.24
2017-09-18T23:44:12.132Z,101156.36
2017-09-18T23:46:41.876Z,101156.10
2017-09-18T23:49:11.745Z,101158.15
2017-09-18T23:51:41.695Z,101161.84
2017-09-18T23:54:11.188Z,101158.56
2017-09-18T23:56:40.755Z,101162.52
2017-09-18T23:59:10.358Z,101167.98
